This is the latest recevied weather packets stored in our database for station/object IU1CYJ. If no packets are shown the sender has not sent any weather packets the latest 10 day(s).
| Time | Temp. | Humidity | Pressure | Rain* | Wind** | Luminosity | Snow |
|---|---|---|---|---|---|---|---|
| 1777564855 | 17.78° C | 53% | 1022.9 hPa | 0 mm | - | - | - |
| 1777562169 | 17.78° C | 54% | 1023 hPa | 0 mm | - | - | - |
| 1777561256 | 17.78° C | 54% | 1023.1 hPa | 0 mm | - | - | - |
| 1777560360 | 17.22° C | 53% | 1023.3 hPa | 0 mm | - | - | - |
| 1777554954 | 16.67° C | 58% | 1024.4 hPa | 0 mm | - | - | - |
| 1777541462 | 13.89° C | 70% | 1025 hPa | 0 mm | - | - | - |
| 1777538753 | 13.33° C | 74% | 1024.7 hPa | 0 mm | - | - | - |
| 1777537854 | 12.78° C | 76% | 1024.5 hPa | 0 mm | - | - | - |
| 1777530653 | 12.22° C | 86% | 1023.7 hPa | 0.51 mm | - | - | - |
| 1777529758 | 12.22° C | 86% | 1023.5 hPa | 0.76 mm | - | - | - |
| 1777525260 | 13.33° C | 84% | 1022 hPa | 1.78 mm | - | - | - |
| 1777522554 | 13.33° C | 82% | 1021.4 hPa | 0.25 mm | - | - | - |
| 1777521680 | 13.89° C | 79% | 1021.4 hPa | 0 mm | - | - | - |
| 1777520752 | 13.89° C | 78% | 1021.3 hPa | 0 mm | - | - | - |
| 1777506363 | 16.67° C | 70% | 1019.5 hPa | 0 mm | - | - | - |
| 1777504552 | 17.22° C | 71% | 1019.1 hPa | 0 mm | - | - | - |
| 1777502762 | 17.78° C | 71% | 1018.6 hPa | 0 mm | - | - | - |
| 1777492853 | 19.44° C | 63% | 1016.8 hPa | 0 mm | - | - | - |
| 1777491952 | 20° C | 63% | 1016.7 hPa | 0 mm | - | - | - |
| 1777483864 | 21.11° C | 59% | 1015.4 hPa | 0 mm | - | - | - |
| 1777476653 | 21.11° C | 58% | 1015.5 hPa | 0 mm | - | - | - |
| 1777472162 | 20.56° C | 62% | 1016.1 hPa | 0 mm | - | - | - |
| 1777470357 | 20.56° C | 63% | 1016.5 hPa | 0 mm | - | - | - |
| 1777469460 | 20° C | 62% | 1016.6 hPa | 0 mm | - | - | - |
| 1777468559 | 20° C | 64% | 1016.6 hPa | 0 mm | - | - | - |
* Rain latest hour (hover to see other rain measurements)
** Current wind speed in m/s (hover to see current wind gust speed)